sensor_id;sensor_type;location;lat;lon;timestamp;pressure;altitude;pressure_sealevel;temperature;humidity
39769;BME280;38939;47.824;14.642;2023-08-08T00:00:15;97128.09;;;13.35;86.92
39769;BME280;38939;47.824;14.642;2023-08-08T00:01:16;97128.91;;;13.36;87.17
39769;BME280;38939;47.824;14.642;2023-08-08T00:02:18;97127.66;;;13.38;87.04
39769;BME280;38939;47.824;14.642;2023-08-08T00:03:20;97126.66;;;13.39;87.17
39769;BME280;38939;47.824;14.642;2023-08-08T00:04:22;97123.00;;;13.40;86.58
39769;BME280;38939;47.824;14.642;2023-08-08T00:05:24;97116.97;;;13.40;86.84
39769;BME280;38939;47.824;14.642;2023-08-08T00:06:26;97122.41;;;13.38;86.42
39769;BME280;38939;47.824;14.642;2023-08-08T00:07:28;97125.47;;;13.35;86.13
39769;BME280;38939;47.824;14.642;2023-08-08T00:08:35;97129.09;;;13.34;86.32
39769;BME280;38939;47.824;14.642;2023-08-08T00:09:37;97122.28;;;13.33;86.03
39769;BME280;38939;47.824;14.642;2023-08-08T00:10:39;97123.06;;;13.34;85.62
39769;BME280;38939;47.824;14.642;2023-08-08T00:11:41;97125.47;;;13.35;86.03
39769;BME280;38939;47.824;14.642;2023-08-08T00:12:42;97117.97;;;13.39;86.07
39769;BME280;38939;47.824;14.642;2023-08-08T00:13:44;97116.19;;;13.39;85.88
39769;BME280;38939;47.824;14.642;2023-08-08T00:14:46;97118.78;;;13.39;86.30
39769;BME280;38939;47.824;14.642;2023-08-08T00:15:48;97114.56;;;13.38;86.54
39769;BME280;38939;47.824;14.642;2023-08-08T00:16:50;97113.16;;;13.36;86.59
39769;BME280;38939;47.824;14.642;2023-08-08T00:17:52;97111.56;;;13.35;86.54
39769;BME280;38939;47.824;14.642;2023-08-08T00:18:54;97115.19;;;13.34;86.61
39769;BME280;38939;47.824;14.642;2023-08-08T00:19:56;97109.97;;;13.34;86.93
39769;BME280;38939;47.824;14.642;2023-08-08T00:20:57;97111.78;;;13.33;86.89
39769;BME280;38939;47.824;14.642;2023-08-08T00:21:59;97107.56;;;13.32;86.95
39769;BME280;38939;47.824;14.642;2023-08-08T00:23:01;97109.59;;;13.30;87.38
39769;BME280;38939;47.824;14.642;2023-08-08T00:24:03;97108.97;;;13.28;87.35
39769;BME280;38939;47.824;14.642;2023-08-08T00:25:05;97108.97;;;13.28;87.45
39769;BME280;38939;47.824;14.642;2023-08-08T00:26:07;97101.91;;;13.29;87.61
39769;BME280;38939;47.824;14.642;2023-08-08T00:27:09;97103.53;;;13.30;87.57
39769;BME280;38939;47.824;14.642;2023-08-08T00:28:10;97111.19;;;13.31;87.71
39769;BME280;38939;47.824;14.642;2023-08-08T00:29:12;97104.34;;;13.30;87.59
39769;BME280;38939;47.824;14.642;2023-08-08T00:30:14;97103.53;;;13.30;87.95
39769;BME280;38939;47.824;14.642;2023-08-08T00:31:18;97098.91;;;13.32;87.66
39769;BME280;38939;47.824;14.642;2023-08-08T00:32:21;97098.09;;;13.31;87.99
39769;BME280;38939;47.824;14.642;2023-08-08T00:33:23;97097.06;;;13.32;87.82
39769;BME280;38939;47.824;14.642;2023-08-08T00:34:25;97091.03;;;13.32;87.39
39769;BME280;38939;47.824;14.642;2023-08-08T00:35:27;97097.06;;;13.32;87.60
39769;BME280;38939;47.824;14.642;2023-08-08T00:36:29;97104.34;;;13.30;87.71
39769;BME280;38939;47.824;14.642;2023-08-08T00:37:30;97094.66;;;13.31;87.50
39769;BME280;38939;47.824;14.642;2023-08-08T00:38:32;97094.88;;;13.29;87.33
39769;BME280;38939;47.824;14.642;2023-08-08T00:39:34;97094.66;;;13.31;87.78
39769;BME280;38939;47.824;14.642;2023-08-08T00:40:36;97095.47;;;13.31;87.55
39769;BME280;38939;47.824;14.642;2023-08-08T00:41:38;97092.28;;;13.29;87.68
39769;BME280;38939;47.824;14.642;2023-08-08T00:42:40;97092.28;;;13.29;86.97
39769;BME280;38939;47.824;14.642;2023-08-08T00:43:41;97094.03;;;13.29;87.46
39769;BME280;38939;47.824;14.642;2023-08-08T00:44:45;97093.84;;;13.30;87.17
39769;BME280;38939;47.824;14.642;2023-08-08T00:45:47;97087.03;;;13.29;87.52
39769;BME280;38939;47.824;14.642;2023-08-08T00:46:48;97092.03;;;13.31;87.52
39769;BME280;38939;47.824;14.642;2023-08-08T00:47:51;97083.16;;;13.32;87.77
39769;BME280;38939;47.824;14.642;2023-08-08T00:48:53;97095.25;;;13.33;87.60
39769;BME280;38939;47.824;14.642;2023-08-08T00:49:55;97091.81;;;13.32;87.76
39769;BME280;38939;47.824;14.642;2023-08-08T00:51:01;97098.69;;;13.33;87.70
39769;BME280;38939;47.824;14.642;2023-08-08T00:52:03;97088.78;;;13.35;87.60
39769;BME280;38939;47.824;14.642;2023-08-08T00:53:05;97096.06;;;13.33;87.65
39769;BME280;38939;47.824;14.642;2023-08-08T00:54:07;97101.50;;;13.32;88.07
39769;BME280;38939;47.824;14.642;2023-08-08T00:55:09;97102.94;;;13.28;87.90
39769;BME280;38939;47.824;14.642;2023-08-08T00:56:12;97095.84;;;13.28;88.38
39769;BME280;38939;47.824;14.642;2023-08-08T00:57:15;97096.66;;;13.29;88.23
39769;BME280;38939;47.824;14.642;2023-08-08T00:58:17;97095.84;;;13.28;88.29
39769;BME280;38939;47.824;14.642;2023-08-08T00:59:19;97096.66;;;13.29;88.08
39769;BME280;38939;47.824;14.642;2023-08-08T01:00:21;97098.31;;;13.30;88.25
39769;BME280;38939;47.824;14.642;2023-08-08T01:01:22;97088.78;;;13.29;88.02
39769;BME280;38939;47.824;14.642;2023-08-08T01:02:24;97088.63;;;13.30;87.99
39769;BME280;38939;47.824;14.642;2023-08-08T01:03:26;97086.59;;;13.32;88.15
39769;BME280;38939;47.824;14.642;2023-08-08T01:04:29;97091.03;;;13.32;87.89
39769;BME280;38939;47.824;14.642;2023-08-08T01:05:34;97098.69;;;13.33;88.21
39769;BME280;38939;47.824;14.642;2023-08-08T01:06:39;97090.00;;;13.33;87.61
39769;BME280;38939;47.824;14.642;2023-08-08T01:08:02;97098.69;;;13.33;87.76
39769;BME280;38939;47.824;14.642;2023-08-08T01:09:09;97098.69;;;13.33;88.09
39769;BME280;38939;47.824;14.642;2023-08-08T01:10:16;97096.28;;;13.32;88.09
39769;BME280;38939;47.824;14.642;2023-08-08T01:11:22;97095.03;;;13.34;87.89
39769;BME280;38939;47.824;14.642;2023-08-08T01:12:24;97088.19;;;13.33;87.60
39769;BME280;38939;47.824;14.642;2023-08-08T01:13:27;97089.00;;;13.34;87.51
39769;BME280;38939;47.824;14.642;2023-08-08T01:14:30;97091.81;;;13.32;87.94
39769;BME280;38939;47.824;14.642;2023-08-08T01:15:34;97098.47;;;13.28;87.86
39769;BME280;38939;47.824;14.642;2023-08-08T01:16:39;97102.75;;;13.23;88.31
39769;BME280;38939;47.824;14.642;2023-08-08T01:17:41;97092.50;;;13.21;87.98
39769;BME280;38939;47.824;14.642;2023-08-08T01:18:44;97087.84;;;13.23;87.88
39769;BME280;38939;47.824;14.642;2023-08-08T01:19:47;97092.84;;;13.25;88.14
39769;BME280;38939;47.824;14.642;2023-08-08T01:20:50;97085.81;;;13.25;87.71
39769;BME280;38939;47.824;14.642;2023-08-08T01:21:53;97101.53;;;13.25;87.97
39769;BME280;38939;47.824;14.642;2023-08-08T01:24:24;97095.28;;;13.26;88.29
39769;BME280;38939;47.824;14.642;2023-08-08T01:25:32;97103.94;;;13.27;87.96
39769;BME280;38939;47.824;14.642;2023-08-08T01:26:34;97096.66;;;13.29;88.21
39769;BME280;38939;47.824;14.642;2023-08-08T01:27:36;97092.28;;;13.29;88.04
39769;BME280;38939;47.824;14.642;2023-08-08T01:28:39;97095.84;;;13.28;88.14
39769;BME280;38939;47.824;14.642;2023-08-08T01:29:41;97092.44;;;13.28;88.52
39769;BME280;38939;47.824;14.642;2023-08-08T01:30:43;97090.25;;;13.25;88.56
39769;BME280;38939;47.824;14.642;2023-08-08T01:31:45;97090.69;;;13.21;88.35
39769;BME280;38939;47.824;14.642;2023-08-08T01:32:47;97084.66;;;13.21;88.33
39769;BME280;38939;47.824;14.642;2023-08-08T01:33:49;97088.84;;;13.22;88.79
39769;BME280;38939;47.824;14.642;2023-08-08T01:34:51;97091.47;;;13.22;88.24
39769;BME280;38939;47.824;14.642;2023-08-08T01:35:54;97091.47;;;13.22;87.74
39769;BME280;38939;47.824;14.642;2023-08-08T01:36:59;97094.31;;;13.20;87.45
39769;BME280;38939;47.824;14.642;2023-08-08T01:39:43;97078.22;;;13.17;87.59
39769;BME280;38939;47.824;14.642;2023-08-08T01:40:45;97080.84;;;13.17;87.93
39769;BME280;38939;47.824;14.642;2023-08-08T01:41:47;97080.63;;;13.18;87.60
39769;BME280;38939;47.824;14.642;2023-08-08T01:42:49;97075.38;;;13.18;87.94
39769;BME280;38939;47.824;14.642;2023-08-08T01:43:52;97078.00;;;13.18;87.76
39769;BME280;38939;47.824;14.642;2023-08-08T01:44:54;97075.38;;;13.18;87.94
39769;BME280;38939;47.824;14.642;2023-08-08T01:45:57;97081.44;;;13.19;87.65
39769;BME280;38939;47.824;14.642;2023-08-08T01:46:59;97077.56;;;13.21;88.03
39769;BME280;38939;47.824;14.642;2023-08-08T01:48:05;97075.75;;;13.22;87.58
39769;BME280;38939;47.824;14.642;2023-08-08T01:49:07;97092.06;;;13.24;87.92
39769;BME280;38939;47.824;14.642;2023-08-08T01:50:09;97090.03;;;13.26;87.67
39769;BME280;38939;47.824;14.642;2023-08-08T01:51:11;97082.16;;;13.26;87.68
39769;BME280;38939;47.824;14.642;2023-08-08T01:52:13;97083.19;;;13.25;87.26
39769;BME280;38939;47.824;14.642;2023-08-08T01:53:15;97076.94;;;13.26;87.53
39769;BME280;38939;47.824;14.642;2023-08-08T01:54:18;97075.34;;;13.25;87.08
39769;BME280;38939;47.824;14.642;2023-08-08T01:55:20;97083.78;;;13.27;87.00
39769;BME280;38939;47.824;14.642;2023-08-08T01:56:22;97085.38;;;13.28;86.78
39769;BME280;38939;47.824;14.642;2023-08-08T01:57:24;97086.41;;;13.27;87.33
39769;BME280;38939;47.824;14.642;2023-08-08T01:58:26;97084.59;;;13.28;87.08
39769;BME280;38939;47.824;14.642;2023-08-08T01:59:28;97084.59;;;13.28;86.84
39769;BME280;38939;47.824;14.642;2023-08-08T02:00:30;97075.09;;;13.27;87.42
39769;BME280;38939;47.824;14.642;2023-08-08T02:01:33;97077.13;;;13.25;87.31
39769;BME280;38939;47.824;14.642;2023-08-08T02:02:35;97081.59;;;13.24;87.59
39769;BME280;38939;47.824;14.642;2023-08-08T02:03:37;97092.06;;;13.24;87.55
39769;BME280;38939;47.824;14.642;2023-08-08T02:04:39;97096.31;;;13.25;87.66
39769;BME280;38939;47.824;14.642;2023-08-08T02:05:41;97091.06;;;13.25;87.78
39769;BME280;38939;47.824;14.642;2023-08-08T02:06:43;97100.13;;;13.29;87.58
39769;BME280;38939;47.824;14.642;2023-08-08T02:07:45;97102.75;;;13.29;87.29
39769;BME280;38939;47.824;14.642;2023-08-08T02:08:46;97103.53;;;13.30;87.72
39769;BME280;38939;47.824;14.642;2023-08-08T02:09:48;97105.13;;;13.31;87.70
39769;BME280;38939;47.824;14.642;2023-08-08T02:10:52;97109.59;;;13.30;87.37
39769;BME280;38939;47.824;14.642;2023-08-08T02:11:54;97124.31;;;13.25;86.90
39769;BME280;38939;47.824;14.642;2023-08-08T02:12:56;97125.34;;;13.24;87.35
39769;BME280;38939;47.824;14.642;2023-08-08T02:13:58;97116.09;;;13.21;87.33
39769;BME280;38939;47.824;14.642;2023-08-08T02:14:59;97112.66;;;13.20;87.47
39769;BME280;38939;47.824;14.642;2023-08-08T02:16:01;97108.63;;;13.18;87.62
39769;BME280;38939;47.824;14.642;2023-08-08T02:17:03;97101.56;;;13.18;87.56
39769;BME280;38939;47.824;14.642;2023-08-08T02:18:05;97097.56;;;13.16;87.89
39769;BME280;38939;47.824;14.642;2023-08-08T02:19:07;97099.59;;;13.14;87.60
39769;BME280;38939;47.824;14.642;2023-08-08T02:20:09;97112.69;;;13.14;88.12
39769;BME280;38939;47.824;14.642;2023-08-08T02:21:13;97112.69;;;13.14;87.58
39769;BME280;38939;47.824;14.642;2023-08-08T02:22:16;97111.69;;;13.15;88.11
39769;BME280;38939;47.824;14.642;2023-08-08T02:23:19;97114.31;;;13.15;88.06
39769;BME280;38939;47.824;14.642;2023-08-08T02:24:20;97112.13;;;13.12;87.79
39769;BME280;38939;47.824;14.642;2023-08-08T02:25:22;97114.72;;;13.12;87.92
39769;BME280;38939;47.824;14.642;2023-08-08T02:26:24;97117.16;;;13.13;87.51
39769;BME280;38939;47.824;14.642;2023-08-08T02:27:27;97105.63;;;13.14;87.98
39769;BME280;38939;47.824;14.642;2023-08-08T02:28:28;97106.47;;;13.15;87.83
39769;BME280;38939;47.824;14.642;2023-08-08T02:29:30;97098.59;;;13.15;88.35
39769;BME280;38939;47.824;14.642;2023-08-08T02:30:32;97102.81;;;13.16;88.02
39769;BME280;38939;47.824;14.642;2023-08-08T02:31:34;97101.22;;;13.15;88.64
39769;BME280;38939;47.824;14.642;2023-08-08T02:32:36;97105.44;;;13.16;88.69
39769;BME280;38939;47.824;14.642;2023-08-08T02:33:38;97102.81;;;13.16;88.96
39769;BME280;38939;47.824;14.642;2023-08-08T02:34:40;97102.81;;;13.16;88.65
39769;BME280;38939;47.824;14.642;2023-08-08T02:35:42;97093.94;;;13.17;88.87
39769;BME280;38939;47.824;14.642;2023-08-08T02:36:44;97104.19;;;13.18;88.76
39769;BME280;38939;47.824;14.642;2023-08-08T02:37:46;97100.56;;;13.19;88.83
39769;BME280;38939;47.824;14.642;2023-08-08T02:38:48;97107.41;;;13.20;88.94
39769;BME280;38939;47.824;14.642;2023-08-08T02:39:51;97112.44;;;13.22;88.84
39769;BME280;38939;47.824;14.642;2023-08-08T02:40:53;97114.84;;;13.24;88.53
39769;BME280;38939;47.824;14.642;2023-08-08T02:41:54;97114.84;;;13.24;88.71
39769;BME280;38939;47.824;14.642;2023-08-08T02:42:57;97120.88;;;13.24;88.76
39769;BME280;38939;47.824;14.642;2023-08-08T02:43:59;97112.88;;;13.19;88.64
39769;BME280;38939;47.824;14.642;2023-08-08T02:45:01;97114.69;;;13.18;88.83
39769;BME280;38939;47.824;14.642;2023-08-08T02:46:02;97117.53;;;13.17;89.33
39769;BME280;38939;47.824;14.642;2023-08-08T02:47:04;97102.22;;;13.14;89.98
39769;BME280;38939;47.824;14.642;2023-08-08T02:48:06;97101.22;;;13.15;89.59
39769;BME280;38939;47.824;14.642;2023-08-08T02:49:08;97106.66;;;13.13;89.76
39769;BME280;38939;47.824;14.642;2023-08-08T02:50:10;97103.47;;;13.11;89.73
39769;BME280;38939;47.824;14.642;2023-08-08T02:51:12;97106.06;;;13.11;89.34
39769;BME280;38939;47.824;14.642;2023-08-08T02:52:14;97100.84;;;13.11;89.43
39769;BME280;38939;47.824;14.642;2023-08-08T02:53:16;97105.88;;;13.13;89.07
39769;BME280;38939;47.824;14.642;2023-08-08T02:54:18;97098.00;;;13.13;89.35
39769;BME280;38939;47.824;14.642;2023-08-08T02:55:19;97098.41;;;13.10;89.16
39769;BME280;38939;47.824;14.642;2023-08-08T02:56:21;97094.78;;;13.11;89.31
39769;BME280;38939;47.824;14.642;2023-08-08T02:57:23;97102.88;;;13.09;89.00
39769;BME280;38939;47.824;14.642;2023-08-08T02:58:25;97099.41;;;13.09;89.11
39769;BME280;38939;47.824;14.642;2023-08-08T02:59:27;97106.50;;;13.08;89.39
39769;BME280;38939;47.824;14.642;2023-08-08T03:00:29;97098.03;;;13.06;89.10
39769;BME280;38939;47.824;14.642;2023-08-08T03:01:30;97098.84;;;13.07;88.87
39769;BME280;38939;47.824;14.642;2023-08-08T03:02:32;97097.84;;;13.08;89.01
39769;BME280;38939;47.824;14.642;2023-08-08T03:03:34;97098.63;;;13.08;89.22
39769;BME280;38939;47.824;14.642;2023-08-08T03:04:36;97101.03;;;13.10;89.34
39769;BME280;38939;47.824;14.642;2023-08-08T03:05:38;97096.00;;;13.08;89.31
39769;BME280;38939;47.824;14.642;2023-08-08T03:06:39;97090.97;;;13.07;89.58
39769;BME280;38939;47.824;14.642;2023-08-08T03:07:41;97095.41;;;13.06;89.57
39769;BME280;38939;47.824;14.642;2023-08-08T03:08:43;97094.41;;;13.07;89.05
39769;BME280;38939;47.824;14.642;2023-08-08T03:09:45;97104.50;;;13.04;89.46
39769;BME280;38939;47.824;14.642;2023-08-08T03:10:47;97103.72;;;13.03;89.24
39769;BME280;38939;47.824;14.642;2023-08-08T03:11:49;97107.34;;;13.02;89.24
39769;BME280;38939;47.824;14.642;2023-08-08T03:12:51;97101.31;;;13.01;89.39
39769;BME280;38939;47.824;14.642;2023-08-08T03:13:53;97101.31;;;13.01;89.62
39769;BME280;38939;47.824;14.642;2023-08-08T03:14:54;97096.06;;;13.01;89.89
39769;BME280;38939;47.824;14.642;2023-08-08T03:15:56;97094.03;;;13.04;89.77
39769;BME280;38939;47.824;14.642;2023-08-08T03:16:58;97096.44;;;13.05;90.17
39769;BME280;38939;47.824;14.642;2023-08-08T03:18:02;97103.94;;;13.01;89.57
39769;BME280;38939;47.824;14.642;2023-08-08T03:19:05;97109.16;;;13.01;89.76
39769;BME280;38939;47.824;14.642;2023-08-08T03:20:07;97095.28;;;13.01;89.82
39769;BME280;38939;47.824;14.642;2023-08-08T03:21:10;97099.47;;;13.02;89.94
39769;BME280;38939;47.824;14.642;2023-08-08T03:22:12;97100.28;;;13.02;89.90
39769;BME280;38939;47.824;14.642;2023-08-08T03:23:14;97100.28;;;13.02;89.49
39769;BME280;38939;47.824;14.642;2023-08-08T03:24:15;97096.84;;;13.02;89.65
39769;BME280;38939;47.824;14.642;2023-08-08T03:25:18;97085.59;;;13.01;89.99
39769;BME280;38939;47.824;14.642;2023-08-08T03:26:20;97088.19;;;13.01;89.63
39769;BME280;38939;47.824;14.642;2023-08-08T03:27:21;97088.78;;;13.04;90.17
39769;BME280;38939;47.824;14.642;2023-08-08T03:28:23;97095.63;;;13.05;90.09
39769;BME280;38939;47.824;14.642;2023-08-08T03:29:25;97094.81;;;13.04;90.20
39769;BME280;38939;47.824;14.642;2023-08-08T03:30:27;97095.63;;;13.05;89.67
39769;BME280;38939;47.824;14.642;2023-08-08T03:31:29;97091.22;;;13.05;89.68
39769;BME280;38939;47.824;14.642;2023-08-08T03:32:31;97091.41;;;13.04;89.79
39769;BME280;38939;47.824;14.642;2023-08-08T03:33:33;97097.44;;;13.04;89.40
39769;BME280;38939;47.824;14.642;2023-08-08T03:34:35;97094.63;;;13.06;89.76
39769;BME280;38939;47.824;14.642;2023-08-08T03:35:37;97092.00;;;13.06;89.86
39769;BME280;38939;47.824;14.642;2023-08-08T03:36:38;97095.41;;;13.06;89.45
39769;BME280;38939;47.824;14.642;2023-08-08T03:37:41;97092.22;;;13.04;89.89
39769;BME280;38939;47.824;14.642;2023-08-08T03:38:43;97094.03;;;13.04;89.52
39769;BME280;38939;47.824;14.642;2023-08-08T03:39:47;97093.81;;;13.05;89.97
39769;BME280;38939;47.824;14.642;2023-08-08T03:40:50;97093.00;;;13.05;89.59
39769;BME280;38939;47.824;14.642;2023-08-08T03:41:52;97092.00;;;13.06;90.16
39769;BME280;38939;47.824;14.642;2023-08-08T03:42:54;97094.63;;;13.06;89.68
39769;BME280;38939;47.824;14.642;2023-08-08T03:43:56;97105.09;;;13.06;89.57
39769;BME280;38939;47.824;14.642;2023-08-08T03:44:58;97101.44;;;13.07;90.06
39769;BME280;38939;47.824;14.642;2023-08-08T03:46:00;97097.25;;;13.06;89.75
39769;BME280;38939;47.824;14.642;2023-08-08T03:47:02;97091.22;;;13.05;89.98
39769;BME280;38939;47.824;14.642;2023-08-08T03:48:19;97095.63;;;13.05;90.40
39769;BME280;38939;47.824;14.642;2023-08-08T03:49:21;97102.47;;;13.06;90.35
39769;BME280;38939;47.824;14.642;2023-08-08T03:50:22;97101.44;;;13.07;90.34
39769;BME280;38939;47.824;14.642;2023-08-08T03:51:24;97106.34;;;13.03;90.01
39769;BME280;38939;47.824;14.642;2023-08-08T03:52:26;97102.88;;;13.02;90.41
39769;BME280;38939;47.824;14.642;2023-08-08T03:53:28;97106.34;;;13.03;90.32
39769;BME280;38939;47.824;14.642;2023-08-08T03:54:30;97108.72;;;13.05;90.54
39769;BME280;38939;47.824;14.642;2023-08-08T03:55:32;97099.88;;;13.06;90.16
39769;BME280;38939;47.824;14.642;2023-08-08T03:56:35;97103.28;;;13.06;90.35
39769;BME280;38939;47.824;14.642;2023-08-08T03:57:36;97101.69;;;13.05;90.23
39769;BME280;38939;47.824;14.642;2023-08-08T03:58:38;97105.09;;;13.06;90.53
39769;BME280;38939;47.824;14.642;2023-08-08T03:59:40;97102.28;;;13.07;90.67
39769;BME280;38939;47.824;14.642;2023-08-08T04:00:42;97098.84;;;13.07;90.23
39769;BME280;38939;47.824;14.642;2023-08-08T04:01:48;97102.03;;;13.09;90.53
39769;BME280;38939;47.824;14.642;2023-08-08T04:02:50;97099.41;;;13.09;90.08
39769;BME280;38939;47.824;14.642;2023-08-08T04:03:52;97104.66;;;13.09;90.56
39769;BME280;38939;47.824;14.642;2023-08-08T04:04:54;97108.91;;;13.10;90.49
39769;BME280;38939;47.824;14.642;2023-08-08T04:05:55;97113.13;;;13.11;90.26
39769;BME280;38939;47.824;14.642;2023-08-08T04:06:57;97111.31;;;13.11;90.07
39769;BME280;38939;47.824;14.642;2023-08-08T04:07:59;97106.88;;;13.12;90.13
39769;BME280;38939;47.824;14.642;2023-08-08T04:09:01;97106.06;;;13.11;89.82
39769;BME280;38939;47.824;14.642;2023-08-08T04:10:03;97107.88;;;13.11;90.02
39769;BME280;38939;47.824;14.642;2023-08-08T04:11:05;97116.75;;;13.10;89.63
39769;BME280;38939;47.824;14.642;2023-08-08T04:12:06;97114.13;;;13.10;89.95
39769;BME280;38939;47.824;14.642;2023-08-08T04:13:09;97109.69;;;13.10;90.01
39769;BME280;38939;47.824;14.642;2023-08-08T04:14:11;97109.50;;;13.12;89.98
39769;BME280;38939;47.824;14.642;2023-08-08T04:15:12;97113.94;;;13.11;89.43
39769;BME280;38939;47.824;14.642;2023-08-08T04:16:14;97107.88;;;13.11;89.46
39769;BME280;38939;47.824;14.642;2023-08-08T04:17:16;97109.69;;;13.10;89.73
39769;BME280;38939;47.824;14.642;2023-08-08T04:18:18;97112.53;;;13.09;89.74
39769;BME280;38939;47.824;14.642;2023-08-08T04:19:20;97114.56;;;13.07;89.53
39769;BME280;38939;47.824;14.642;2023-08-08T04:20:22;97113.97;;;13.05;89.79
39769;BME280;38939;47.824;14.642;2023-08-08T04:21:24;97117.41;;;13.05;89.63
39769;BME280;38939;47.824;14.642;2023-08-08T04:22:27;97113.97;;;13.05;89.46
39769;BME280;38939;47.824;14.642;2023-08-08T04:23:29;97115.59;;;13.06;89.95
39769;BME280;38939;47.824;14.642;2023-08-08T04:24:31;97112.16;;;13.05;89.79
39769;BME280;38939;47.824;14.642;2023-08-08T04:25:33;97109.31;;;13.07;89.93
39769;BME280;38939;47.824;14.642;2023-08-08T04:26:35;97118.00;;;13.07;89.92
39769;BME280;38939;47.824;14.642;2023-08-08T04:27:37;97108.31;;;13.08;89.62
39769;BME280;38939;47.824;14.642;2023-08-08T04:28:39;97115.13;;;13.09;89.82
39769;BME280;38939;47.824;14.642;2023-08-08T04:29:40;97113.34;;;13.09;89.97
39769;BME280;38939;47.824;14.642;2023-08-08T04:30:42;97113.13;;;13.11;89.61
39769;BME280;38939;47.824;14.642;2023-08-08T04:31:44;97114.94;;;13.10;89.64
39769;BME280;38939;47.824;14.642;2023-08-08T04:32:46;97107.66;;;13.12;89.72
39769;BME280;38939;47.824;14.642;2023-08-08T04:33:48;97111.13;;;13.13;89.91
39769;BME280;38939;47.824;14.642;2023-08-08T04:34:50;97109.50;;;13.12;89.58
39769;BME280;38939;47.824;14.642;2023-08-08T04:35:52;97107.28;;;13.09;90.04
39769;BME280;38939;47.824;14.642;2023-08-08T04:36:54;97113.56;;;13.08;89.89
39769;BME280;38939;47.824;14.642;2023-08-08T04:37:56;97116.16;;;13.08;89.62
39769;BME280;38939;47.824;14.642;2023-08-08T04:38:58;97111.72;;;13.08;90.12
39769;BME280;38939;47.824;14.642;2023-08-08T04:40:00;97118.59;;;13.09;89.79
39769;BME280;38939;47.824;14.642;2023-08-08T04:41:02;97116.97;;;13.08;89.78
39769;BME280;38939;47.824;14.642;2023-08-08T04:42:03;97121.22;;;13.09;89.76
39769;BME280;38939;47.824;14.642;2023-08-08T04:43:05;97122.00;;;13.10;89.72
39769;BME280;38939;47.824;14.642;2023-08-08T04:44:07;97122.78;;;13.10;89.96
39769;BME280;38939;47.824;14.642;2023-08-08T04:45:09;97121.41;;;13.08;89.68
39769;BME280;38939;47.824;14.642;2023-08-08T04:46:11;97117.16;;;13.07;89.97
39769;BME280;38939;47.824;14.642;2023-08-08T04:47:13;97118.78;;;13.08;89.54
39769;BME280;38939;47.824;14.642;2023-08-08T04:48:15;97112.53;;;13.09;90.15
39769;BME280;38939;47.824;14.642;2023-08-08T04:49:17;97117.34;;;13.12;89.90
39769;BME280;38939;47.824;14.642;2023-08-08T04:50:19;97110.50;;;13.11;89.79
39769;BME280;38939;47.824;14.642;2023-08-08T04:51:21;97114.53;;;13.13;89.85
39769;BME280;38939;47.824;14.642;2023-08-08T04:52:22;97116.94;;;13.15;89.46
39769;BME280;38939;47.824;14.642;2023-08-08T04:53:24;97119.31;;;13.16;89.53
39769;BME280;38939;47.824;14.642;2023-08-08T04:54:26;97118.13;;;13.19;89.79
39769;BME280;38939;47.824;14.642;2023-08-08T04:55:28;97122.53;;;13.18;89.82
39769;BME280;38939;47.824;14.642;2023-08-08T04:56:30;97117.53;;;13.17;90.23
39769;BME280;38939;47.824;14.642;2023-08-08T04:57:31;97116.69;;;13.16;90.29
39769;BME280;38939;47.824;14.642;2023-08-08T04:58:33;97119.56;;;13.15;89.78
39769;BME280;38939;47.824;14.642;2023-08-08T04:59:35;97124.56;;;13.16;90.04
39769;BME280;38939;47.824;14.642;2023-08-08T05:00:40;97120.16;;;13.17;89.72
39769;BME280;38939;47.824;14.642;2023-08-08T05:01:42;97124.56;;;13.16;89.94
39769;BME280;38939;47.824;14.642;2023-08-08T05:02:43;97118.31;;;13.17;89.81
39769;BME280;38939;47.824;14.642;2023-08-08T05:03:47;97126.56;;;13.21;89.87
39769;BME280;38939;47.824;14.642;2023-08-08T05:04:50;97116.09;;;13.21;89.51
39769;BME280;38939;47.824;14.642;2023-08-08T05:05:51;97117.69;;;13.22;89.60
39769;BME280;38939;47.824;14.642;2023-08-08T05:06:53;97126.94;;;13.25;90.01
39769;BME280;38939;47.824;14.642;2023-08-08T05:07:55;97116.69;;;13.23;89.71
39769;BME280;38939;47.824;14.642;2023-08-08T05:08:57;97115.66;;;13.24;89.63
39769;BME280;38939;47.824;14.642;2023-08-08T05:09:59;97120.88;;;13.24;89.71
39769;BME280;38939;47.824;14.642;2023-08-08T05:11:00;97120.69;;;13.26;90.35
39769;BME280;38939;47.824;14.642;2023-08-08T05:12:02;97122.50;;;13.25;90.27
39769;BME280;38939;47.824;14.642;2023-08-08T05:13:05;97124.91;;;13.27;90.01
39769;BME280;38939;47.824;14.642;2023-08-08T05:14:07;97124.91;;;13.27;89.89
39769;BME280;38939;47.824;14.642;2023-08-08T05:15:09;97124.91;;;13.27;90.39
39769;BME280;38939;47.824;14.642;2023-08-08T05:16:11;97120.47;;;13.27;90.47
39769;BME280;38939;47.824;14.642;2023-08-08T05:17:12;97124.50;;;13.30;90.22
39769;BME280;38939;47.824;14.642;2023-08-08T05:18:14;97112.78;;;13.32;90.21
39769;BME280;38939;47.824;14.642;2023-08-08T05:19:16;97117.03;;;13.33;90.42
39769;BME280;38939;47.824;14.642;2023-08-08T05:20:18;97121.25;;;13.34;90.13
39769;BME280;38939;47.824;14.642;2023-08-08T05:21:21;97121.03;;;13.36;90.07
39769;BME280;38939;47.824;14.642;2023-08-08T05:22:23;97128.47;;;13.39;90.06
39769;BME280;38939;47.824;14.642;2023-08-08T05:23:25;97130.50;;;13.37;90.21
39769;BME280;38939;47.824;14.642;2023-08-08T05:24:27;97127.06;;;13.36;90.15
39769;BME280;38939;47.824;14.642;2023-08-08T05:25:28;97125.25;;;13.37;90.53
39769;BME280;38939;47.824;14.642;2023-08-08T05:26:30;97126.88;;;13.38;90.44
39769;BME280;38939;47.824;14.642;2023-08-08T05:27:32;97129.28;;;13.39;90.25
39769;BME280;38939;47.824;14.642;2023-08-08T05:28:34;97125.03;;;13.38;90.32